This is the latest recevied weather packets stored in our database for station/object N0THY. If no packets are shown the sender has not sent any weather packets the latest 10 day(s).
| Time | Temp. | Humidity | Pressure | Rain* | Wind** | Luminosity | Snow |
|---|---|---|---|---|---|---|---|
| 1777582342 | 16.67° C | 28% | 1015 hPa | 0 mm | - | - | - |
| 1777581439 | 17.78° C | 28% | 1015 hPa | 0 mm | - | - | - |
| 1777580536 | 15.56° C | 31% | 1015.1 hPa | 0 mm | - | - | - |
| 1777579633 | 15.56° C | 31% | 1015.1 hPa | 0 mm | - | - | - |
| 1777578730 | 16.11° C | 32% | 1015.2 hPa | 0 mm | - | - | - |
| 1777576021 | 12.78° C | 42% | 1015.8 hPa | 0 mm | - | - | - |
| 1777575118 | 12.22° C | 45% | 1016 hPa | 0 mm | - | - | - |
| 1777574215 | 12.22° C | 42% | 1016.1 hPa | 0 mm | - | - | - |
| 1777573312 | 14.44° C | 36% | 1016.3 hPa | 0 mm | - | - | - |
| 1777572409 | 15° C | 36% | 1016.1 hPa | 0 mm | - | - | - |
| 1777571506 | 15° C | 34% | 1016.2 hPa | 0 mm | - | - | - |
| 1777570603 | 15.56° C | 32% | 1016.4 hPa | 0 mm | - | - | - |
| 1777569700 | 16.11° C | 33% | 1016.5 hPa | 0 mm | - | - | - |
| 1777568797 | 15.56° C | 36% | 1016.6 hPa | 0 mm | - | - | - |
| 1777567895 | 13.89° C | 40% | 1016.9 hPa | 0 mm | - | - | - |
| 1777566992 | 13.33° C | 43% | 1017.1 hPa | 0 mm | - | - | - |
| 1777566089 | 12.78° C | 47% | 1017.3 hPa | 0 mm | - | - | - |
| 1777565186 | 10.56° C | 54% | 1017.5 hPa | 0 mm | - | - | - |
| 1777564283 | 8.89° C | 56% | 1017.6 hPa | 0 mm | - | - | - |
| 1777563380 | 10° C | 55% | 1017.7 hPa | 0 mm | - | - | - |
| 1777562477 | 8.89° C | 63% | 1017.9 hPa | 0 mm | - | - | - |
| 1777561574 | 8.33° C | 62% | 1018.1 hPa | 0 mm | - | - | - |
| 1777560671 | 8.33° C | 62% | 1018.2 hPa | 0 mm | - | - | - |
| 1777558865 | 7.78° C | 64% | 1018.3 hPa | 0 mm | - | - | - |
| 1777557962 | 7.22° C | 68% | 1018.5 hPa | 0 mm | - | - | - |
* Rain since midnight (hover to see other rain measurements)
** Current wind speed in m/s (hover to see current wind gust speed)